Time;durP1;ratioP1;P1;durP2;ratioP2;P2;SDS_P1;SDS_P2;PMS_P1;PMS_P2;Temp;Humidity;BMP_temperature;BMP_pressure;BME280_temperature;BME280_humidity;BME280_pressure;Samples;Min_cycle;Max_cycle;Signal;HPM_P1;HPM_P2
2021/05/25 00:00:49;;;;;;;25.35;22.65;;;;;;;;;;5028364;28;20889;-89
2021/05/25 00:03:15;;;;;;;27.83;24.45;;;;;;;;;;5028678;28;21068;-89
2021/05/25 00:05:43;;;;;;;27.67;24.77;;;;;;;;;;5029894;28;20801;-88
2021/05/25 00:08:09;;;;;;;28.05;25.05;;;;;;;;;;5032813;28;20426;-88
2021/05/25 00:10:36;;;;;;;29.65;24.88;;;;;;;;;;5030519;28;20410;-89
2021/05/25 00:13:03;;;;;;;32.30;26.50;;;;;;;;;;5027541;28;20405;-88
2021/05/25 00:15:33;;;;;;;30.35;26.40;;;;;;;;;;5031610;28;20399;-88
2021/05/25 00:17:59;;;;;;;32.78;27.40;;;;;;;;;;5035501;28;20412;-88
2021/05/25 00:20:27;;;;;;;34.80;28.42;;;;;;;;;;5029815;28;20519;-88
2021/05/25 00:22:55;;;;;;;32.85;28.55;;;;;;;;;;5031070;28;20433;-87
2021/05/25 00:25:22;;;;;;;32.95;27.98;;;;;;;;;;5033446;28;20511;-89
2021/05/25 00:27:49;;;;;;;34.75;29.42;;;;;;;;;;5027665;28;20407;-88
2021/05/25 00:30:18;;;;;;;32.47;27.52;;;;;;;;;;5032909;28;20512;-86
2021/05/25 00:32:45;;;;;;;33.00;28.15;;;;;;;;;;5035425;28;20409;-86
2021/05/25 00:35:14;;;;;;;32.40;27.65;;;;;;;;;;5034062;28;20461;-87
2021/05/25 00:37:41;;;;;;;32.38;27.23;;;;;;;;;;5032391;28;20523;-88
2021/05/25 00:40:10;;;;;;;33.05;28.35;;;;;;;;;;5032686;28;20882;-87
2021/05/25 00:42:37;;;;;;;34.53;28.27;;;;;;;;;;5030853;28;20421;-87
2021/05/25 00:45:05;;;;;;;30.42;25.02;;;;;;;;;;5031832;28;20438;-89
2021/05/25 00:47:32;;;;;;;33.43;27.63;;;;;;;;;;5033969;28;20532;-88
2021/05/25 00:50:09;;;;;;;37.90;27.00;;;;;;;;;;5031486;28;20486;-89
2021/05/25 00:52:37;;;;;;;33.22;27.10;;;;;;;;;;5027689;28;20433;-89
2021/05/25 00:55:05;;;;;;;32.40;26.70;;;;;;;;;;5033957;28;20400;-88
2021/05/25 00:57:33;;;;;;;32.70;26.55;;;;;;;;;;5031518;28;20410;-88
2021/05/25 01:00:00;;;;;;;34.35;26.90;;;;;;;;;;5033235;28;20856;-87
2021/05/25 01:02:26;;;;;;;35.00;27.85;;;;;;;;;;5031636;28;20910;-88
2021/05/25 01:04:53;;;;;;;33.72;26.90;;;;;;;;;;5032798;28;20496;-88
2021/05/25 01:07:19;;;;;;;33.25;27.05;;;;;;;;;;5032203;28;20409;-87
2021/05/25 01:09:45;;;;;;;33.30;26.38;;;;;;;;;;5030607;28;20996;-87
2021/05/25 01:12:12;;;;;;;32.67;26.15;;;;;;;;;;5032569;28;20411;-86
2021/05/25 01:14:44;;;;;;;34.28;26.90;;;;;;;;;;5030225;28;20402;-87
2021/05/25 01:17:12;;;;;;;27.55;22.98;;;;;;;;;;5031127;28;20737;-88
2021/05/25 01:19:39;;;;;;;28.17;22.98;;;;;;;;;;5028714;28;20401;-89
2021/05/25 01:22:06;;;;;;;28.08;23.15;;;;;;;;;;5028762;28;20436;-89
2021/05/25 01:24:33;;;;;;;31.08;23.85;;;;;;;;;;5030316;28;20408;-87
2021/05/25 01:27:01;;;;;;;28.80;23.17;;;;;;;;;;5034872;28;20522;-88
2021/05/25 01:29:27;;;;;;;27.92;22.98;;;;;;;;;;5033483;28;20499;-89
2021/05/25 01:31:54;;;;;;;28.63;22.97;;;;;;;;;;5035072;28;20410;-88
2021/05/25 01:34:21;;;;;;;30.53;23.33;;;;;;;;;;5030039;28;20513;-88
2021/05/25 01:36:48;;;;;;;32.60;24.10;;;;;;;;;;5030516;28;20467;-88
2021/05/25 01:39:16;;;;;;;29.50;23.17;;;;;;;;;;5030360;28;20402;-88
2021/05/25 01:41:43;;;;;;;25.83;21.30;;;;;;;;;;5030302;28;20424;-87
2021/05/25 01:44:10;;;;;;;31.15;22.30;;;;;;;;;;5028478;28;20439;-87
2021/05/25 01:46:37;;;;;;;25.88;21.85;;;;;;;;;;5028378;28;20405;-87
2021/05/25 01:49:04;;;;;;;23.48;19.10;;;;;;;;;;5033067;28;20430;-85
2021/05/25 01:51:30;;;;;;;24.33;19.17;;;;;;;;;;5029699;28;20397;-88
2021/05/25 01:53:57;;;;;;;24.58;19.02;;;;;;;;;;5027797;28;21042;-87
2021/05/25 01:56:24;;;;;;;22.13;18.40;;;;;;;;;;5030266;28;20424;-89
2021/05/25 01:58:51;;;;;;;19.25;15.60;;;;;;;;;;5030417;28;20413;-87
2021/05/25 02:01:17;;;;;;;18.58;15.63;;;;;;;;;;5031115;28;20397;-87
2021/05/25 02:03:43;;;;;;;18.70;16.13;;;;;;;;;;5028264;28;20424;-88
2021/05/25 02:06:11;;;;;;;20.77;17.25;;;;;;;;;;5024254;28;20393;-88
2021/05/25 02:08:39;;;;;;;19.42;17.30;;;;;;;;;;5028483;28;20401;-86
2021/05/25 02:11:07;;;;;;;20.43;18.23;;;;;;;;;;5028033;28;20401;-88
2021/05/25 02:13:37;;;;;;;18.40;15.40;;;;;;;;;;5028736;28;20406;-90
2021/05/25 02:16:06;;;;;;;18.42;15.90;;;;;;;;;;5028112;28;20401;-88
2021/05/25 02:18:34;;;;;;;19.77;16.90;;;;;;;;;;5028312;28;20485;-87
2021/05/25 02:21:04;;;;;;;21.23;17.60;;;;;;;;;;5022497;28;20411;-86
2021/05/25 02:23:31;;;;;;;21.83;17.73;;;;;;;;;;5027600;28;20447;-87
2021/05/25 02:25:58;;;;;;;21.80;18.67;;;;;;;;;;5027912;28;20401;-87
2021/05/25 02:28:26;;;;;;;21.23;18.10;;;;;;;;;;5028539;28;20418;-88
2021/05/25 02:30:55;;;;;;;24.70;19.95;;;;;;;;;;5010367;28;20812;-85
2021/05/25 02:33:24;;;;;;;25.52;20.75;;;;;;;;;;5010248;28;20410;-87
2021/05/25 02:35:54;;;;;;;26.08;20.80;;;;;;;;;;5028076;28;20405;-88
2021/05/25 02:38:20;;;;;;;22.17;19.30;;;;;;;;;;5027661;28;20413;-88
2021/05/25 02:40:50;;;;;;;24.83;19.73;;;;;;;;;;5028166;28;20408;-88
2021/05/25 02:43:19;;;;;;;25.15;19.95;;;;;;;;;;5027721;28;20421;-88
2021/05/25 02:45:46;;;;;;;23.42;20.20;;;;;;;;;;5028428;28;20421;-88
2021/05/25 02:48:14;;;;;;;25.95;19.13;;;;;;;;;;5027504;28;20405;-87
2021/05/25 02:50:41;;;;;;;24.60;20.55;;;;;;;;;;5016017;28;20436;-88
2021/05/25 02:53:08;;;;;;;25.05;20.02;;;;;;;;;;5027630;28;20467;-87
2021/05/25 02:55:36;;;;;;;26.23;20.95;;;;;;;;;;5028768;28;20402;-88
2021/05/25 02:58:05;;;;;;;27.13;21.70;;;;;;;;;;5028551;28;20405;-87
2021/05/25 03:00:33;;;;;;;28.67;22.05;;;;;;;;;;5029351;28;20405;-88
2021/05/25 03:03:00;;;;;;;26.75;21.35;;;;;;;;;;5043188;28;20420;-88
2021/05/25 03:05:28;;;;;;;30.48;22.90;;;;;;;;;;5051562;28;20381;-87
2021/05/25 03:07:56;;;;;;;33.22;25.30;;;;;;;;;;5027635;28;20409;-87
2021/05/25 03:10:25;;;;;;;32.83;25.03;;;;;;;;;;5027202;28;20406;-88
2021/05/25 03:12:52;;;;;;;38.67;25.92;;;;;;;;;;5027335;28;20401;-87
2021/05/25 03:15:22;;;;;;;35.25;26.67;;;;;;;;;;5027325;28;20405;-87
2021/05/25 03:17:49;;;;;;;38.75;27.48;;;;;;;;;;5009808;28;20481;-87
2021/05/25 03:20:16;;;;;;;39.90;27.55;;;;;;;;;;5027259;28;20413;-87
2021/05/25 03:22:45;;;;;;;37.67;27.70;;;;;;;;;;5027183;28;20479;-87
2021/05/25 03:25:14;;;;;;;38.15;27.45;;;;;;;;;;5023351;28;20817;-87
2021/05/25 03:27:41;;;;;;;36.67;26.65;;;;;;;;;;5023637;28;20397;-87
2021/05/25 03:30:10;;;;;;;36.30;27.42;;;;;;;;;;5026824;28;20416;-86
2021/05/25 03:32:37;;;;;;;38.15;26.92;;;;;;;;;;5027040;28;20427;-88
2021/05/25 03:35:07;;;;;;;36.22;27.10;;;;;;;;;;5026653;28;20401;-87
2021/05/25 03:37:34;;;;;;;37.75;27.45;;;;;;;;;;5027092;28;20406;-88
2021/05/25 03:40:02;;;;;;;37.15;27.35;;;;;;;;;;5026924;28;20401;-87
2021/05/25 03:42:28;;;;;;;39.25;27.48;;;;;;;;;;5026921;28;20416;-87
2021/05/25 03:44:55;;;;;;;42.28;29.40;;;;;;;;;;5026852;28;20402;-88
2021/05/25 03:47:24;;;;;;;40.85;29.05;;;;;;;;;;5026586;28;20409;-87
2021/05/25 03:49:51;;;;;;;43.25;29.40;;;;;;;;;;5026749;28;20956;-88
2021/05/25 03:52:17;;;;;;;45.53;30.73;;;;;;;;;;5026698;28;21214;-87
2021/05/25 03:54:48;;;;;;;42.87;29.90;;;;;;;;;;5026680;28;20898;-87
2021/05/25 03:58:46;;;;;;;47.70;30.30;;;;;;;;;;5027239;28;20951;-87
2021/05/25 04:00:12;;;;;;;45.53;29.83;;;;;;;;;;5021709;28;20846;-87
2021/05/25 04:02:38;;;;;;;45.33;30.27;;;;;;;;;;5030749;28;20421;-87
2021/05/25 04:05:06;;;;;;;47.53;30.25;;;;;;;;;;5023956;28;20421;-87
2021/05/25 04:07:33;;;;;;;50.33;31.67;;;;;;;;;;5032101;28;20876;-87
2021/05/25 04:09:59;;;;;;;52.45;32.08;;;;;;;;;;5044571;28;20813;-87
2021/05/25 04:12:26;;;;;;;49.67;30.55;;;;;;;;;;5044505;28;20400;-87
2021/05/25 04:14:53;;;;;;;49.25;31.25;;;;;;;;;;5044849;28;20400;-87
2021/05/25 04:17:19;;;;;;;51.53;31.27;;;;;;;;;;5035267;28;20516;-87
2021/05/25 04:19:46;;;;;;;52.35;32.17;;;;;;;;;;5038703;28;20731;-87
2021/05/25 04:22:12;;;;;;;51.40;31.60;;;;;;;;;;5041391;28;20422;-87
2021/05/25 04:24:39;;;;;;;48.08;31.42;;;;;;;;;;5038046;28;20402;-87
2021/05/25 04:27:05;;;;;;;54.22;31.70;;;;;;;;;;5037798;28;20406;-87
2021/05/25 04:29:33;;;;;;;56.35;33.30;;;;;;;;;;5041031;28;20429;-87
2021/05/25 04:31:59;;;;;;;51.67;31.90;;;;;;;;;;5044035;28;20392;-87
2021/05/25 04:34:26;;;;;;;51.10;32.07;;;;;;;;;;5043719;28;20469;-87
2021/05/25 04:36:53;;;;;;;48.63;31.80;;;;;;;;;;5035723;28;20402;-87
2021/05/25 04:39:19;;;;;;;47.77;29.93;;;;;;;;;;5042479;28;20461;-87
2021/05/25 04:41:45;;;;;;;51.70;30.20;;;;;;;;;;5044665;28;20399;-87
2021/05/25 04:44:12;;;;;;;52.10;31.77;;;;;;;;;;5037679;28;20908;-86
2021/05/25 04:46:39;;;;;;;50.83;32.05;;;;;;;;;;5043362;28;20409;-86
2021/05/25 04:49:06;;;;;;;50.67;31.63;;;;;;;;;;5040908;28;20452;-87
2021/05/25 04:51:32;;;;;;;50.92;32.28;;;;;;;;;;5027668;28;20512;-87
2021/05/25 04:53:59;;;;;;;48.90;31.55;;;;;;;;;;5033119;28;20402;-87
2021/05/25 04:56:26;;;;;;;52.78;32.33;;;;;;;;;;5037179;28;20409;-86
2021/05/25 04:58:52;;;;;;;52.03;31.90;;;;;;;;;;5028252;28;20413;-87
2021/05/25 05:01:18;;;;;;;49.30;31.08;;;;;;;;;;5025122;28;20877;-88
2021/05/25 05:03:46;;;;;;;45.33;28.38;;;;;;;;;;5029899;28;20536;-86
2021/05/25 05:06:12;;;;;;;49.87;30.20;;;;;;;;;;5025959;28;20462;-87
2021/05/25 05:08:43;;;;;;;45.90;29.00;;;;;;;;;;5028702;28;20401;-86
2021/05/25 05:11:10;;;;;;;48.17;29.65;;;;;;;;;;5030943;28;20410;-87
2021/05/25 05:13:37;;;;;;;50.58;31.88;;;;;;;;;;5041984;28;20455;-86
2021/05/25 05:16:04;;;;;;;47.45;30.67;;;;;;;;;;5034667;28;20403;-87
2021/05/25 05:18:30;;;;;;;48.58;30.88;;;;;;;;;;5042249;28;20399;-87
2021/05/25 05:20:58;;;;;;;51.55;32.60;;;;;;;;;;5042424;28;20403;-87
2021/05/25 05:23:25;;;;;;;49.80;31.77;;;;;;;;;;5041960;28;20427;-87
2021/05/25 05:25:51;;;;;;;48.25;30.42;;;;;;;;;;5028716;28;20422;-87
2021/05/25 05:28:18;;;;;;;48.70;31.17;;;;;;;;;;5032405;28;21258;-88
2021/05/25 05:30:44;;;;;;;48.28;30.58;;;;;;;;;;5040001;28;20829;-85
2021/05/25 05:33:11;;;;;;;48.95;30.52;;;;;;;;;;5035654;28;20416;-89
2021/05/25 05:35:37;;;;;;;47.30;31.42;;;;;;;;;;5030252;28;20743;-79
2021/05/25 05:38:05;;;;;;;47.13;31.40;;;;;;;;;;5026720;28;20425;-87
2021/05/25 05:40:33;;;;;;;50.65;31.33;;;;;;;;;;5010426;28;20905;-87
2021/05/25 05:43:00;;;;;;;44.20;29.73;;;;;;;;;;5033928;28;21041;-87
2021/05/25 05:45:27;;;;;;;45.33;28.80;;;;;;;;;;5027504;28;20894;-90
2021/05/25 05:47:54;;;;;;;50.00;30.98;;;;;;;;;;5039236;28;20414;-86
2021/05/25 05:50:20;;;;;;;45.33;29.90;;;;;;;;;;5041518;28;20902;-87
2021/05/25 05:52:47;;;;;;;47.83;30.58;;;;;;;;;;5036821;28;20403;-88
2021/05/25 05:55:17;;;;;;;40.67;28.20;;;;;;;;;;5042353;28;20420;-88
2021/05/25 05:57:46;;;;;;;43.55;28.85;;;;;;;;;;5023988;28;20417;-87
2021/05/25 06:00:14;;;;;;;40.40;27.23;;;;;;;;;;5030274;28;20429;-88
2021/05/25 06:02:42;;;;;;;43.95;29.00;;;;;;;;;;5028040;28;20437;-87
2021/05/25 06:05:10;;;;;;;43.85;29.42;;;;;;;;;;5032558;28;20405;-87
2021/05/25 06:07:36;;;;;;;46.83;29.83;;;;;;;;;;5026487;28;20421;-87
2021/05/25 06:10:04;;;;;;;41.22;26.90;;;;;;;;;;5029236;28;20410;-87
2021/05/25 06:12:32;;;;;;;40.13;26.85;;;;;;;;;;5029870;28;20408;-88
2021/05/25 06:14:58;;;;;;;43.45;28.15;;;;;;;;;;5030625;28;20458;-86
2021/05/25 06:17:25;;;;;;;46.78;29.63;;;;;;;;;;5030273;28;20404;-87
2021/05/25 06:19:51;;;;;;;45.30;29.67;;;;;;;;;;5030392;28;21040;-87
2021/05/25 06:22:21;;;;;;;46.13;30.38;;;;;;;;;;5031687;28;21018;-87
2021/05/25 06:24:48;;;;;;;43.25;28.80;;;;;;;;;;5026919;28;20429;-87
2021/05/25 06:27:16;;;;;;;40.75;28.08;;;;;;;;;;5028752;28;20726;-87
2021/05/25 06:29:44;;;;;;;40.88;28.60;;;;;;;;;;5027627;28;20490;-88
2021/05/25 06:32:10;;;;;;;43.92;29.02;;;;;;;;;;5025763;28;20420;-88
2021/05/25 06:34:37;;;;;;;41.63;27.65;;;;;;;;;;5035629;28;20470;-87
2021/05/25 06:37:03;;;;;;;41.67;28.60;;;;;;;;;;5040167;28;20427;-88
2021/05/25 06:39:30;;;;;;;39.78;27.42;;;;;;;;;;5030441;28;20399;-87
2021/05/25 06:41:56;;;;;;;42.03;28.58;;;;;;;;;;5026651;28;20416;-87
2021/05/25 06:44:23;;;;;;;41.90;28.48;;;;;;;;;;5030801;28;20532;-87
2021/05/25 06:46:50;;;;;;;37.43;26.63;;;;;;;;;;5027977;28;20477;-88
2021/05/25 06:49:17;;;;;;;39.78;26.70;;;;;;;;;;5029258;28;20735;-87
2021/05/25 06:51:43;;;;;;;36.67;26.15;;;;;;;;;;5024067;28;20410;-87
2021/05/25 06:54:12;;;;;;;33.97;25.70;;;;;;;;;;5025479;28;20413;-88
2021/05/25 06:56:39;;;;;;;35.33;25.88;;;;;;;;;;5027859;28;20421;-87
2021/05/25 06:59:06;;;;;;;35.10;25.43;;;;;;;;;;5029145;28;20577;-88
2021/05/25 07:01:35;;;;;;;35.63;26.23;;;;;;;;;;5025368;28;20869;-87
2021/05/25 07:04:03;;;;;;;32.72;24.48;;;;;;;;;;5029571;28;20792;-88
2021/05/25 07:06:30;;;;;;;34.00;25.75;;;;;;;;;;5026268;28;20406;-87
2021/05/25 07:08:57;;;;;;;36.25;26.50;;;;;;;;;;5029081;28;20440;-88
2021/05/25 07:11:24;;;;;;;34.00;25.08;;;;;;;;;;5027976;28;20973;-88
2021/05/25 07:13:51;;;;;;;32.67;24.87;;;;;;;;;;5028891;28;20413;-88
2021/05/25 07:16:17;;;;;;;32.63;23.55;;;;;;;;;;5026064;28;20400;-88
2021/05/25 07:18:44;;;;;;;32.58;24.05;;;;;;;;;;5028669;28;20423;-88
2021/05/25 07:21:12;;;;;;;30.95;23.27;;;;;;;;;;5024216;28;20789;-88
2021/05/25 07:23:39;;;;;;;34.58;25.42;;;;;;;;;;5027825;28;20432;-89
2021/05/25 07:26:05;;;;;;;31.80;23.92;;;;;;;;;;5029539;28;20425;-88
2021/05/25 07:28:32;;;;;;;34.00;25.65;;;;;;;;;;5027934;28;20883;-87
2021/05/25 07:30:59;;;;;;;33.58;25.23;;;;;;;;;;5029006;28;20463;-88
2021/05/25 07:33:27;;;;;;;34.70;26.27;;;;;;;;;;5029927;28;20410;-88
2021/05/25 07:35:54;;;;;;;34.63;26.60;;;;;;;;;;5012099;28;20405;-88
2021/05/25 07:38:22;;;;;;;33.63;25.23;;;;;;;;;;5035572;28;20426;-88
2021/05/25 07:40:49;;;;;;;32.63;24.30;;;;;;;;;;5027769;28;20404;-88
2021/05/25 07:43:16;;;;;;;35.35;25.05;;;;;;;;;;5032156;28;20478;-89
2021/05/25 07:45:43;;;;;;;33.03;24.50;;;;;;;;;;5029587;28;20424;-89
2021/05/25 07:48:10;;;;;;;31.85;24.40;;;;;;;;;;5033549;28;20401;-89
2021/05/25 07:50:36;;;;;;;31.10;24.58;;;;;;;;;;5032187;28;20413;-88
2021/05/25 07:53:03;;;;;;;32.40;23.60;;;;;;;;;;5030845;28;20406;-87
2021/05/25 07:55:32;;;;;;;32.13;24.95;;;;;;;;;;5026630;28;20409;-88
2021/05/25 07:58:00;;;;;;;35.55;26.30;;;;;;;;;;5024225;28;20401;-89
2021/05/25 08:00:27;;;;;;;34.93;26.63;;;;;;;;;;5026544;28;20496;-88
2021/05/25 08:02:56;;;;;;;31.05;24.80;;;;;;;;;;5027882;28;20420;-89
2021/05/25 08:05:24;;;;;;;31.25;23.33;;;;;;;;;;5021096;28;20644;-88
2021/05/25 08:07:51;;;;;;;32.65;23.75;;;;;;;;;;5025341;28;20406;-88
2021/05/25 08:10:18;;;;;;;32.17;24.10;;;;;;;;;;5028070;28;20480;-88
2021/05/25 08:12:46;;;;;;;31.10;24.58;;;;;;;;;;5026490;28;20441;-88
2021/05/25 08:15:15;;;;;;;30.75;23.15;;;;;;;;;;5025198;28;20421;-88
2021/05/25 08:17:50;;;;;;;27.93;22.63;;;;;;;;;;5027354;28;20431;-88
2021/05/25 08:20:19;;;;;;;29.50;24.38;;;;;;;;;;5029897;28;20488;-88
2021/05/25 08:22:47;;;;;;;26.87;21.83;;;;;;;;;;5032056;28;20466;-90
2021/05/25 08:25:15;;;;;;;30.00;23.35;;;;;;;;;;5030545;28;20413;-88
2021/05/25 08:27:42;;;;;;;30.48;23.27;;;;;;;;;;5028357;28;20902;-89
2021/05/25 08:30:10;;;;;;;32.67;24.75;;;;;;;;;;5033346;28;20416;-89
2021/05/25 08:32:37;;;;;;;36.17;26.38;;;;;;;;;;5034972;28;20389;-89
2021/05/25 08:35:05;;;;;;;30.27;23.73;;;;;;;;;;5027338;28;20459;-88
2021/05/25 08:37:33;;;;;;;30.52;24.52;;;;;;;;;;5027647;28;20397;-89
2021/05/25 08:39:59;;;;;;;28.88;23.45;;;;;;;;;;5031835;28;20405;-88
2021/05/25 08:42:26;;;;;;;29.17;23.42;;;;;;;;;;5034552;28;20411;-88
2021/05/25 08:44:52;;;;;;;30.63;24.20;;;;;;;;;;5037915;28;20400;-88
2021/05/25 08:47:21;;;;;;;30.65;24.98;;;;;;;;;;5036593;28;20461;-88
2021/05/25 08:49:47;;;;;;;32.45;24.90;;;;;;;;;;5029687;28;20865;-89
2021/05/25 08:52:15;;;;;;;32.63;25.63;;;;;;;;;;5027213;28;20810;-89
2021/05/25 08:54:43;;;;;;;29.23;25.13;;;;;;;;;;5036859;28;20482;-88
2021/05/25 08:57:11;;;;;;;30.98;24.15;;;;;;;;;;5029834;28;20774;-88
2021/05/25 08:59:38;;;;;;;29.65;23.50;;;;;;;;;;5029285;28;20429;-88
2021/05/25 09:02:05;;;;;;;30.88;24.27;;;;;;;;;;5030444;28;20410;-89
2021/05/25 09:04:57;;;;;;;31.98;25.38;;;;;;;;;;5029010;28;20421;-87
2021/05/25 09:07:36;;;;;;;28.88;24.73;;;;;;;;;;5016796;28;20944;-88
2021/05/25 09:10:05;;;;;;;30.83;25.52;;;;;;;;;;5026090;28;20405;-87
2021/05/25 09:12:38;;;;;;;31.85;25.25;;;;;;;;;;5026105;28;20405;-87
2021/05/25 09:15:06;;;;;;;29.50;24.40;;;;;;;;;;5026336;28;20786;-87
2021/05/25 09:17:32;;;;;;;29.67;22.75;;;;;;;;;;5023663;28;20402;-89
2021/05/25 09:20:00;;;;;;;28.47;22.43;;;;;;;;;;5024860;28;20407;-88
2021/05/25 09:22:38;;;;;;;25.95;22.35;;;;;;;;;;5023320;28;20416;-88
2021/05/25 09:25:19;;;;;;;25.23;21.70;;;;;;;;;;5027805;28;20437;-88
2021/05/25 09:27:48;;;;;;;25.80;21.67;;;;;;;;;;5025337;28;20928;-88
2021/05/25 09:30:25;;;;;;;28.13;23.30;;;;;;;;;;5029189;28;20555;-88
2021/05/25 09:32:55;;;;;;;26.85;23.52;;;;;;;;;;5024477;28;20663;-87
2021/05/25 09:35:23;;;;;;;26.85;23.02;;;;;;;;;;5029080;28;20742;-88
2021/05/25 09:37:52;;;;;;;28.85;24.27;;;;;;;;;;5026218;28;20474;-87
2021/05/25 09:40:20;;;;;;;30.02;24.80;;;;;;;;;;5026902;28;20909;-87
2021/05/25 09:42:48;;;;;;;27.42;24.17;;;;;;;;;;5026500;28;20429;-88
2021/05/25 09:45:17;;;;;;;27.30;23.63;;;;;;;;;;5028708;28;20420;-88
2021/05/25 09:47:47;;;;;;;27.30;23.63;;;;;;;;;;5027957;28;20421;-87
2021/05/25 09:50:16;;;;;;;27.67;24.33;;;;;;;;;;5027128;28;20401;-87
2021/05/25 09:53:03;;;;;;;28.55;24.00;;;;;;;;;;5025712;28;20416;-88
2021/05/25 09:55:30;;;;;;;27.38;24.38;;;;;;;;;;5023503;28;20405;-87
2021/05/25 09:57:59;;;;;;;29.10;24.77;;;;;;;;;;5024884;28;20404;-88
2021/05/25 10:00:29;;;;;;;27.38;24.05;;;;;;;;;;5026513;28;20428;-88
2021/05/25 10:03:16;;;;;;;27.77;23.52;;;;;;;;;;5024161;28;20491;-87
2021/05/25 10:05:45;;;;;;;25.40;22.00;;;;;;;;;;5024760;28;21164;-87
2021/05/25 10:08:13;;;;;;;25.02;22.38;;;;;;;;;;5027083;28;20401;-88
2021/05/25 10:10:42;;;;;;;26.38;23.58;;;;;;;;;;5023144;28;20409;-88
2021/05/25 10:13:09;;;;;;;25.33;22.42;;;;;;;;;;5026166;28;20401;-89
2021/05/25 10:15:37;;;;;;;26.00;23.17;;;;;;;;;;5030850;28;21080;-87
2021/05/25 10:18:33;;;;;;;26.83;23.52;;;;;;;;;;5025014;28;20425;-87
2021/05/25 10:21:01;;;;;;;24.75;22.05;;;;;;;;;;5028609;28;20420;-88
2021/05/25 10:23:32;;;;;;;25.55;22.17;;;;;;;;;;5025270;28;21047;-87
2021/05/25 10:26:00;;;;;;;24.92;22.20;;;;;;;;;;5026039;28;20409;-87
2021/05/25 10:28:27;;;;;;;22.95;20.42;;;;;;;;;;5025727;28;20409;-88
2021/05/25 10:30:57;;;;;;;23.23;19.30;;;;;;;;;;5029311;28;20420;-88
2021/05/25 10:33:28;;;;;;;21.13;18.92;;;;;;;;;;5024954;28;20503;-88
2021/05/25 10:35:59;;;;;;;19.63;17.52;;;;;;;;;;5028804;28;20418;-89
2021/05/25 10:38:27;;;;;;;20.42;18.33;;;;;;;;;;5031524;28;20887;-88
2021/05/25 10:40:57;;;;;;;19.30;17.15;;;;;;;;;;5023625;28;20471;-89
2021/05/25 10:43:45;;;;;;;18.80;16.90;;;;;;;;;;5021492;28;20433;-88
2021/05/25 10:46:22;;;;;;;19.00;16.95;;;;;;;;;;5027199;28;20409;-89
2021/05/25 10:48:58;;;;;;;18.52;16.58;;;;;;;;;;5024834;28;20417;-89
2021/05/25 10:52:13;;;;;;;19.07;17.17;;;;;;;;;;5028556;28;20406;-88
2021/05/25 10:54:58;;;;;;;17.08;15.38;;;;;;;;;;5026735;28;20459;-89
2021/05/25 10:57:53;;;;;;;17.92;16.13;;;;;;;;;;5024734;28;20500;-88
2021/05/25 11:00:31;;;;;;;16.35;14.57;;;;;;;;;;5029611;28;20496;-88
2021/05/25 11:03:00;;;;;;;15.10;13.55;;;;;;;;;;5042718;28;20427;-88
2021/05/25 11:05:48;;;;;;;11.50;10.40;;;;;;;;;;5036748;28;20408;-87
2021/05/25 11:08:24;;;;;;;10.13;9.00;;;;;;;;;;5028253;28;20496;-87
2021/05/25 11:10:53;;;;;;;12.35;9.98;;;;;;;;;;5026722;28;20861;-88
2021/05/25 11:13:25;;;;;;;11.07;8.38;;;;;;;;;;5026250;28;20402;-88
2021/05/25 11:16:03;;;;;;;10.50;9.40;;;;;;;;;;5027497;28;20413;-88
2021/05/25 11:18:33;;;;;;;11.82;10.07;;;;;;;;;;5025285;28;20486;-88
2021/05/25 11:23:50;;;;;;;12.82;11.50;;;;;;;;;;5020025;28;20448;-88
2021/05/25 11:26:55;;;;;;;14.80;11.77;;;;;;;;;;5025415;28;20564;-86
2021/05/25 11:29:24;;;;;;;13.38;10.85;;;;;;;;;;5025356;28;20413;-88
2021/05/25 11:31:50;;;;;;;10.50;9.10;;;;;;;;;;5023738;28;20425;-87
2021/05/25 11:34:21;;;;;;;11.02;9.38;;;;;;;;;;5024691;28;20782;-87
2021/05/25 11:36:57;;;;;;;11.43;9.45;;;;;;;;;;5023855;28;20413;-87
2021/05/25 11:39:24;;;;;;;11.02;9.50;;;;;;;;;;5034126;28;20481;-87
2021/05/25 11:41:51;;;;;;;10.80;9.75;;;;;;;;;;5028951;28;20463;-88
2021/05/25 11:44:20;;;;;;;11.40;9.10;;;;;;;;;;5024939;28;20425;-87
2021/05/25 11:46:49;;;;;;;13.38;10.07;;;;;;;;;;5027656;28;20413;-87
2021/05/25 11:49:17;;;;;;;10.07;8.98;;;;;;;;;;5034135;28;20417;-87
2021/05/25 11:51:44;;;;;;;10.73;8.90;;;;;;;;;;5028772;28;20501;-88
2021/05/25 11:54:13;;;;;;;11.07;9.77;;;;;;;;;;5026731;28;20397;-87
2021/05/25 11:56:42;;;;;;;11.55;9.95;;;;;;;;;;5026474;28;20421;-89
2021/05/25 11:59:18;;;;;;;10.57;9.48;;;;;;;;;;5025218;28;20966;-87
2021/05/25 12:01:48;;;;;;;8.98;7.90;;;;;;;;;;5017289;28;20421;-89
2021/05/25 12:04:16;;;;;;;8.60;7.70;;;;;;;;;;5020794;28;20515;-87
2021/05/25 12:06:50;;;;;;;10.02;8.88;;;;;;;;;;5020553;28;20427;-87
2021/05/25 12:09:18;;;;;;;12.68;11.20;;;;;;;;;;5024482;28;20421;-87
2021/05/25 12:11:46;;;;;;;12.98;11.65;;;;;;;;;;5025559;28;20449;-88
2021/05/25 12:14:14;;;;;;;13.25;10.98;;;;;;;;;;5024683;28;20507;-88
2021/05/25 12:16:42;;;;;;;12.10;10.80;;;;;;;;;;5024945;28;20449;-87
2021/05/25 12:19:09;;;;;;;10.57;9.47;;;;;;;;;;5024508;28;20449;-88
2021/05/25 12:21:37;;;;;;;9.55;8.50;;;;;;;;;;5025342;28;20423;-89
2021/05/25 12:24:05;;;;;;;9.93;8.00;;;;;;;;;;5024129;28;20475;-88
2021/05/25 12:26:46;;;;;;;10.48;8.35;;;;;;;;;;5025999;28;20420;-89
2021/05/25 12:29:15;;;;;;;11.43;8.43;;;;;;;;;;5024363;28;20413;-88
2021/05/25 12:31:41;;;;;;;10.30;9.20;;;;;;;;;;5024048;28;20417;-88
2021/05/25 12:34:09;;;;;;;11.38;8.77;;;;;;;;;;5023300;28;20497;-88
2021/05/25 12:36:54;;;;;;;10.07;8.88;;;;;;;;;;5023953;28;20405;-88
2021/05/25 12:39:33;;;;;;;10.30;8.77;;;;;;;;;;5025068;28;20489;-88
2021/05/25 12:41:59;;;;;;;9.18;7.22;;;;;;;;;;5026967;28;20408;-87
2021/05/25 12:44:29;;;;;;;8.80;7.70;;;;;;;;;;5023470;28;20422;-87
2021/05/25 12:46:59;;;;;;;8.43;7.07;;;;;;;;;;5023337;28;20417;-87
2021/05/25 12:49:31;;;;;;;9.23;7.78;;;;;;;;;;5022264;28;20402;-88
2021/05/25 12:52:21;;;;;;;9.57;7.90;;;;;;;;;;5025044;28;20918;-86
2021/05/25 12:54:54;;;;;;;9.63;7.40;;;;;;;;;;5023161;28;20834;-88
2021/05/25 12:57:21;;;;;;;8.20;7.30;;;;;;;;;;5024257;28;20413;-88
2021/05/25 12:59:59;;;;;;;6.85;6.03;;;;;;;;;;5026749;28;20437;-88
2021/05/25 13:02:43;;;;;;;7.83;5.10;;;;;;;;;;5022026;28;20409;-86
2021/05/25 13:05:12;;;;;;;8.48;6.82;;;;;;;;;;5024042;28;20512;-88
2021/05/25 13:07:56;;;;;;;8.60;6.70;;;;;;;;;;5022358;28;20774;-88
2021/05/25 13:10:36;;;;;;;6.63;6.03;;;;;;;;;;5024736;28;20774;-87
2021/05/25 13:13:14;;;;;;;6.72;5.80;;;;;;;;;;5026783;28;20424;-87
2021/05/25 13:15:42;;;;;;;7.63;6.30;;;;;;;;;;5025392;28;20401;-88
2021/05/25 13:18:13;;;;;;;8.35;6.93;;;;;;;;;;5023832;28;20405;-88
2021/05/25 13:20:43;;;;;;;6.35;5.68;;;;;;;;;;5022122;28;20401;-88
2021/05/25 13:23:25;;;;;;;5.70;5.20;;;;;;;;;;5025551;28;20409;-89
2021/05/25 13:26:05;;;;;;;6.18;5.47;;;;;;;;;;5023670;28;20420;-87
2021/05/25 13:28:52;;;;;;;6.72;6.07;;;;;;;;;;5021850;28;20425;-87
2021/05/25 13:31:19;;;;;;;4.93;4.47;;;;;;;;;;5020484;28;21319;-88
2021/05/25 13:33:47;;;;;;;6.55;5.25;;;;;;;;;;5022797;28;20394;-88
2021/05/25 13:36:14;;;;;;;6.10;5.50;;;;;;;;;;5023442;28;20502;-88
2021/05/25 13:38:42;;;;;;;5.40;4.90;;;;;;;;;;5007165;28;20465;-87
2021/05/25 13:41:09;;;;;;;6.10;5.50;;;;;;;;;;5020803;28;20503;-86
2021/05/25 13:43:36;;;;;;;7.78;5.82;;;;;;;;;;5023756;28;20459;-87
2021/05/25 13:46:03;;;;;;;7.40;6.63;;;;;;;;;;5023773;28;20459;-87
2021/05/25 13:48:29;;;;;;;6.43;5.72;;;;;;;;;;5022284;28;20413;-88
2021/05/25 13:50:56;;;;;;;7.20;6.50;;;;;;;;;;5022573;28;20415;-88
2021/05/25 13:53:23;;;;;;;6.80;5.85;;;;;;;;;;5022212;28;21168;-88
2021/05/25 13:55:50;;;;;;;6.80;5.88;;;;;;;;;;5022571;28;20972;-88
2021/05/25 13:58:19;;;;;;;6.85;6.25;;;;;;;;;;5022357;28;20639;-88
2021/05/25 14:03:44;;;;;;;6.00;5.35;;;;;;;;;;4937665;28;20456;-88
2021/05/25 14:06:11;;;;;;;7.00;6.25;;;;;;;;;;4938980;28;20409;-87
2021/05/25 14:08:38;;;;;;;5.63;5.13;;;;;;;;;;4971347;28;20415;-87
2021/05/25 14:11:05;;;;;;;6.00;5.43;;;;;;;;;;5022605;28;21130;-87
2021/05/25 14:13:33;;;;;;;5.80;5.30;;;;;;;;;;5020165;28;20407;-88
2021/05/25 14:16:00;;;;;;;6.32;4.95;;;;;;;;;;5022453;28;20406;-88
2021/05/25 14:18:26;;;;;;;7.93;5.90;;;;;;;;;;5021717;28;20407;-87
2021/05/25 14:20:53;;;;;;;6.00;5.40;;;;;;;;;;5021214;28;20516;-87
2021/05/25 14:23:20;;;;;;;8.27;6.05;;;;;;;;;;5020480;28;20416;-86
2021/05/25 14:25:48;;;;;;;7.18;6.47;;;;;;;;;;5024646;28;21944;-88
2021/05/25 14:28:14;;;;;;;2.92;2.28;;;;;;;;;;5024104;28;20414;-88
2021/05/25 14:30:42;;;;;;;2.30;1.00;;;;;;;;;;5022159;28;20778;-86
2021/05/25 14:33:09;;;;;;;2.92;1.02;;;;;;;;;;5019302;28;20841;-87
2021/05/25 14:35:36;;;;;;;4.70;1.73;;;;;;;;;;5018243;28;20413;-87
2021/05/25 14:38:02;;;;;;;7.15;2.70;;;;;;;;;;5024375;28;20836;-86